Highland, Indiana
Current Conditions -  °F | °C
As of 10:35 AM on Tuesday 21 Oct 2014 (Local Time) from KIGQ Reporting Station
Overcast Overcast  
Wind Chill: 50°   Ceiling: 3600
Heat Index: 50°   Visibility: 10mi
Dew Point: 43°   Wind: 9mph
Humidity: 75%   Direction: 10°N
Pressure: 30.15"   Gusts: 21mph
Location:  41.55°N, 87.45°W
Report Text: KIGQ 211535Z AUTO 01008G18KT 10SM SCT023 BKN036 OVC043 10/06 A3015 RMK AO2 T01020059
Loading
Personal Weather Stations






























Interactive Weather Map
Tropical Storm Tracking
New forecast layout! Learn more

10-Day Weather Forecast

Advertisements
Track Severe Weather on mobile